sensor_id;sensor_type;location;lat;lon;timestamp;pressure;altitude;pressure_sealevel;temperature;humidity
7050;BME280;22263;52.260;10.548;2022-12-22T00:02:09;99661.19;;;7.64;100.00
7050;BME280;22263;52.260;10.548;2022-12-22T00:04:52;99658.44;;;7.68;100.00
7050;BME280;22263;52.260;10.548;2022-12-22T00:07:36;99659.69;;;7.74;100.00
7050;BME280;22263;52.260;10.548;2022-12-22T00:10:18;99647.44;;;7.68;100.00
7050;BME280;22263;52.260;10.548;2022-12-22T00:13:00;99649.78;;;7.62;100.00
7050;BME280;22263;52.260;10.548;2022-12-22T00:15:43;99650.97;;;7.65;100.00
7050;BME280;22263;52.260;10.548;2022-12-22T00:18:28;99652.19;;;7.71;100.00
7050;BME280;22263;52.260;10.548;2022-12-22T00:21:10;99642.00;;;7.75;100.00
7050;BME280;22263;52.260;10.548;2022-12-22T00:23:53;99621.59;;;7.76;100.00
7050;BME280;22263;52.260;10.548;2022-12-22T00:26:35;99626.34;;;7.82;100.00
7050;BME280;22263;52.260;10.548;2022-12-22T00:29:17;99619.69;;;7.87;100.00
7050;BME280;22263;52.260;10.548;2022-12-22T00:31:59;99613.44;;;7.90;100.00
7050;BME280;22263;52.260;10.548;2022-12-22T00:34:43;99615.41;;;7.93;100.00
7050;BME280;22263;52.260;10.548;2022-12-22T00:37:28;99607.56;;;7.95;100.00
7050;BME280;22263;52.260;10.548;2022-12-22T00:40:16;99596.59;;;8.02;100.00
7050;BME280;22263;52.260;10.548;2022-12-22T00:42:58;99597.03;;;8.11;100.00
7050;BME280;22263;52.260;10.548;2022-12-22T00:45:40;99596.69;;;8.13;100.00
7050;BME280;22263;52.260;10.548;2022-12-22T00:48:25;99590.78;;;8.14;100.00
7050;BME280;22263;52.260;10.548;2022-12-22T00:51:10;99586.84;;;8.15;100.00
7050;BME280;22263;52.260;10.548;2022-12-22T00:53:53;99583.34;;;8.18;100.00
7050;BME280;22263;52.260;10.548;2022-12-22T00:56:35;99582.16;;;8.19;100.00
7050;BME280;22263;52.260;10.548;2022-12-22T00:59:17;99575.06;;;8.18;100.00
7050;BME280;22263;52.260;10.548;2022-12-22T01:01:59;99573.91;;;8.19;100.00
7050;BME280;22263;52.260;10.548;2022-12-22T01:04:43;99557.84;;;8.32;100.00
7050;BME280;22263;52.260;10.548;2022-12-22T01:07:27;99564.94;;;8.29;100.00
7050;BME280;22263;52.260;10.548;2022-12-22T01:10:11;99563.41;;;8.39;100.00
7050;BME280;22263;52.260;10.548;2022-12-22T01:12:53;99561.84;;;8.45;100.00
7050;BME280;22263;52.260;10.548;2022-12-22T01:15:35;99557.94;;;8.50;100.00
7050;BME280;22263;52.260;10.548;2022-12-22T01:18:17;99557.59;;;8.58;100.00
7050;BME280;22263;52.260;10.548;2022-12-22T01:20:58;99556.44;;;8.70;100.00
7050;BME280;22263;52.260;10.548;2022-12-22T01:23:43;99554.47;;;8.70;100.00
7050;BME280;22263;52.260;10.548;2022-12-22T01:26:26;99557.22;;;8.74;100.00
7050;BME280;22263;52.260;10.548;2022-12-22T01:29:07;99551.34;;;8.79;100.00
7050;BME280;22263;52.260;10.548;2022-12-22T01:31:49;99545.84;;;8.83;100.00
7050;BME280;22263;52.260;10.548;2022-12-22T01:34:33;99537.97;;;8.78;100.00
7050;BME280;22263;52.260;10.548;2022-12-22T01:37:17;99523.78;;;8.79;100.00
7050;BME280;22263;52.260;10.548;2022-12-22T01:40:01;99529.28;;;8.83;100.00
7050;BME280;22263;52.260;10.548;2022-12-22T01:42:43;99524.56;;;8.80;100.00
7050;BME280;22263;52.260;10.548;2022-12-22T01:45:28;99525.78;;;8.82;100.00
7050;BME280;22263;52.260;10.548;2022-12-22T01:48:11;99517.88;;;8.84;100.00
7050;BME280;22263;52.260;10.548;2022-12-22T01:50:54;99523.81;;;8.86;100.00
7050;BME280;22263;52.260;10.548;2022-12-22T01:53:36;99506.47;;;8.86;100.00
7050;BME280;22263;52.260;10.548;2022-12-22T01:56:20;99508.06;;;8.87;100.00
7050;BME280;22263;52.260;10.548;2022-12-22T01:59:03;99514.75;;;8.82;100.00
7050;BME280;22263;52.260;10.548;2022-12-22T02:01:45;99513.16;;;8.85;100.00
7050;BME280;22263;52.260;10.548;2022-12-22T02:04:30;99501.72;;;8.83;100.00
7050;BME280;22263;52.260;10.548;2022-12-22T02:07:23;99499.41;;;8.95;100.00
7050;BME280;22263;52.260;10.548;2022-12-22T02:10:18;99500.59;;;8.87;100.00
7050;BME280;22263;52.260;10.548;2022-12-22T02:13:21;99491.50;;;8.94;100.00
7050;BME280;22263;52.260;10.548;2022-12-22T02:16:13;99492.31;;;8.94;100.00
7050;BME280;22263;52.260;10.548;2022-12-22T02:19:07;99483.63;;;8.92;100.00
7050;BME280;22263;52.260;10.548;2022-12-22T02:21:58;99483.25;;;8.90;100.00
7050;BME280;22263;52.260;10.548;2022-12-22T02:24:48;99487.59;;;8.95;100.00
7050;BME280;22263;52.260;10.548;2022-12-22T02:27:33;99484.81;;;8.84;100.00
7050;BME280;22263;52.260;10.548;2022-12-22T02:30:17;99487.19;;;8.89;100.00
7050;BME280;22263;52.260;10.548;2022-12-22T02:33:00;99471.41;;;8.93;100.00
7050;BME280;22263;52.260;10.548;2022-12-22T02:35:45;99468.66;;;8.90;100.00
7050;BME280;22263;52.260;10.548;2022-12-22T02:38:36;99473.78;;;8.84;100.00
7050;BME280;22263;52.260;10.548;2022-12-22T02:41:32;99467.50;;;8.87;100.00
7050;BME280;22263;52.260;10.548;2022-12-22T02:44:26;99463.13;;;8.83;100.00
7050;BME280;22263;52.260;10.548;2022-12-22T02:47:14;99464.75;;;8.87;100.00
7050;BME280;22263;52.260;10.548;2022-12-22T02:50:05;99453.31;;;8.89;100.00
7050;BME280;22263;52.260;10.548;2022-12-22T02:52:49;99456.47;;;8.87;100.00
7050;BME280;22263;52.260;10.548;2022-12-22T02:55:31;99456.84;;;8.86;100.00
7050;BME280;22263;52.260;10.548;2022-12-22T02:58:14;99452.13;;;8.90;100.00
7050;BME280;22263;52.260;10.548;2022-12-22T03:00:59;99452.13;;;8.93;100.00
7050;BME280;22263;52.260;10.548;2022-12-22T03:03:41;99453.72;;;8.94;100.00
7050;BME280;22263;52.260;10.548;2022-12-22T03:06:24;99452.13;;;8.86;100.00
7050;BME280;22263;52.260;10.548;2022-12-22T03:09:05;99444.63;;;8.97;100.00
7050;BME280;22263;52.260;10.548;2022-12-22T03:11:47;99452.53;;;8.99;100.00
7050;BME280;22263;52.260;10.548;2022-12-22T03:14:29;99448.97;;;8.95;100.00
7050;BME280;22263;52.260;10.548;2022-12-22T03:17:14;99444.66;;;9.04;100.00
7050;BME280;22263;52.260;10.548;2022-12-22T03:19:56;99447.41;;;9.01;100.00
7050;BME280;22263;52.260;10.548;2022-12-22T03:22:37;99430.06;;;8.93;100.00
7050;BME280;22263;52.260;10.548;2022-12-22T03:25:19;99432.44;;;8.98;100.00
7050;BME280;22263;52.260;10.548;2022-12-22T03:28:02;99427.72;;;9.06;100.00
7050;BME280;22263;52.260;10.548;2022-12-22T03:30:32;99427.31;;;9.04;100.00
7050;BME280;22263;52.260;10.548;2022-12-22T03:33:03;99419.03;;;9.04;100.00
7050;BME280;22263;52.260;10.548;2022-12-22T03:35:35;99413.53;;;9.00;100.00
7050;BME280;22263;52.260;10.548;2022-12-22T03:38:03;99411.53;;;9.11;100.00
7050;BME280;22263;52.260;10.548;2022-12-22T03:40:32;99418.66;;;9.05;100.00
7050;BME280;22263;52.260;10.548;2022-12-22T03:43:01;99415.88;;;9.02;100.00
7050;BME280;22263;52.260;10.548;2022-12-22T03:45:44;99405.25;;;9.00;100.00
7050;BME280;22263;52.260;10.548;2022-12-22T03:48:27;99398.56;;;9.05;100.00
7050;BME280;22263;52.260;10.548;2022-12-22T03:50:59;99395.41;;;9.10;100.00
7050;BME280;22263;52.260;10.548;2022-12-22T03:53:28;99396.59;;;9.09;100.00
7050;BME280;22263;52.260;10.548;2022-12-22T03:55:57;99384.38;;;9.10;100.00
7050;BME280;22263;52.260;10.548;2022-12-22T03:58:33;99379.25;;;9.08;100.00
7050;BME280;22263;52.260;10.548;2022-12-22T04:01:06;99376.09;;;9.03;100.00
7050;BME280;22263;52.260;10.548;2022-12-22T04:03:37;99383.97;;;9.08;100.00
7050;BME280;22263;52.260;10.548;2022-12-22T04:06:07;99378.47;;;9.08;100.00
7050;BME280;22263;52.260;10.548;2022-12-22T04:08:36;99372.16;;;9.07;100.00
7050;BME280;22263;52.260;10.548;2022-12-22T04:11:12;99372.56;;;9.02;100.00
7050;BME280;22263;52.260;10.548;2022-12-22T04:13:55;99366.25;;;9.05;100.00
7050;BME280;22263;52.260;10.548;2022-12-22T04:16:24;99369.00;;;9.12;100.00
7050;BME280;22263;52.260;10.548;2022-12-22T04:18:54;99372.53;;;9.16;100.00
7050;BME280;22263;52.260;10.548;2022-12-22T04:21:23;99363.91;;;9.00;100.00
7050;BME280;22263;52.260;10.548;2022-12-22T04:23:55;99362.69;;;9.08;100.00
7050;BME280;22263;52.260;10.548;2022-12-22T04:26:24;99365.03;;;9.17;100.00
7050;BME280;22263;52.260;10.548;2022-12-22T04:28:53;99355.19;;;9.16;100.00
7050;BME280;22263;52.260;10.548;2022-12-22T04:31:22;99356.78;;;9.13;100.00
7050;BME280;22263;52.260;10.548;2022-12-22T04:33:51;99351.28;;;9.21;100.00
7050;BME280;22263;52.260;10.548;2022-12-22T04:36:22;99343.00;;;9.21;100.00
7050;BME280;22263;52.260;10.548;2022-12-22T04:38:53;99341.81;;;9.14;100.00
7050;BME280;22263;52.260;10.548;2022-12-22T04:41:24;99345.75;;;9.13;100.00
7050;BME280;22263;52.260;10.548;2022-12-22T04:43:52;99344.16;;;9.16;100.00
7050;BME280;22263;52.260;10.548;2022-12-22T04:46:21;99339.81;;;9.22;100.00
7050;BME280;22263;52.260;10.548;2022-12-22T04:48:51;99333.53;;;9.25;100.00
7050;BME280;22263;52.260;10.548;2022-12-22T04:51:28;99320.94;;;9.21;100.00
7050;BME280;22263;52.260;10.548;2022-12-22T04:53:57;99325.25;;;9.18;100.00
7050;BME280;22263;52.260;10.548;2022-12-22T04:56:26;99324.09;;;9.08;100.00
7050;BME280;22263;52.260;10.548;2022-12-22T04:58:55;99320.16;;;9.09;100.00
7050;BME280;22263;52.260;10.548;2022-12-22T05:01:27;99309.94;;;9.06;100.00
7050;BME280;22263;52.260;10.548;2022-12-22T05:03:57;99309.16;;;9.06;100.00
7050;BME280;22263;52.260;10.548;2022-12-22T05:06:29;99304.78;;;9.12;100.00
7050;BME280;22263;52.260;10.548;2022-12-22T05:08:58;99294.56;;;8.98;100.00
7050;BME280;22263;52.260;10.548;2022-12-22T05:11:29;99293.38;;;9.03;100.00
7050;BME280;22263;52.260;10.548;2022-12-22T05:13:58;99299.28;;;9.08;100.00
7050;BME280;22263;52.260;10.548;2022-12-22T05:16:33;99291.81;;;8.98;100.00
7050;BME280;22263;52.260;10.548;2022-12-22T05:19:02;99290.63;;;9.06;100.00
7050;BME280;22263;52.260;10.548;2022-12-22T05:21:33;99278.03;;;8.98;100.00
7050;BME280;22263;52.260;10.548;2022-12-22T05:24:04;99278.44;;;8.90;100.00
7050;BME280;22263;52.260;10.548;2022-12-22T05:26:33;99280.03;;;8.87;100.00
7050;BME280;22263;52.260;10.548;2022-12-22T05:29:02;99274.91;;;8.86;100.00
7050;BME280;22263;52.260;10.548;2022-12-22T05:31:31;99269.03;;;8.77;100.00
7050;BME280;22263;52.260;10.548;2022-12-22T05:34:01;99265.06;;;8.74;100.00
7050;BME280;22263;52.260;10.548;2022-12-22T05:36:32;99268.63;;;8.64;100.00
7050;BME280;22263;52.260;10.548;2022-12-22T05:39:13;99253.69;;;8.61;100.00
7050;BME280;22263;52.260;10.548;2022-12-22T05:41:42;99261.97;;;8.58;100.00
7050;BME280;22263;52.260;10.548;2022-12-22T05:44:11;99271.78;;;8.62;100.00
7050;BME280;22263;52.260;10.548;2022-12-22T05:46:39;99257.25;;;8.58;100.00
7050;BME280;22263;52.260;10.548;2022-12-22T05:49:09;99250.94;;;8.51;100.00
7050;BME280;22263;52.260;10.548;2022-12-22T05:51:39;99252.09;;;8.50;100.00
7050;BME280;22263;52.260;10.548;2022-12-22T05:54:08;99258.81;;;8.52;100.00
7050;BME280;22263;52.260;10.548;2022-12-22T05:56:37;99252.91;;;8.50;100.00
7050;BME280;22263;52.260;10.548;2022-12-22T05:59:06;99251.34;;;8.53;100.00
7050;BME280;22263;52.260;10.548;2022-12-22T06:01:35;99245.81;;;8.60;100.00
7050;BME280;22263;52.260;10.548;2022-12-22T06:04:04;99236.75;;;8.59;100.00
7050;BME280;22263;52.260;10.548;2022-12-22T06:06:33;99243.06;;;8.60;100.00
7050;BME280;22263;52.260;10.548;2022-12-22T06:09:04;99230.84;;;8.61;100.00
7050;BME280;22263;52.260;10.548;2022-12-22T06:11:33;99230.44;;;8.59;100.00
7050;BME280;22263;52.260;10.548;2022-12-22T06:14:02;99223.75;;;8.60;100.00
7050;BME280;22263;52.260;10.548;2022-12-22T06:16:31;99233.59;;;8.54;100.00
7050;BME280;22263;52.260;10.548;2022-12-22T06:19:00;99224.94;;;8.62;100.00
7050;BME280;22263;52.260;10.548;2022-12-22T06:21:29;99223.75;;;8.60;100.00
7050;BME280;22263;52.260;10.548;2022-12-22T06:23:58;99238.72;;;8.66;100.00
7050;BME280;22263;52.260;10.548;2022-12-22T06:26:30;99227.69;;;8.59;100.00
7050;BME280;22263;52.260;10.548;2022-12-22T06:29:00;99221.41;;;8.58;100.00
7050;BME280;22263;52.260;10.548;2022-12-22T06:31:29;99230.84;;;8.61;100.00
7050;BME280;22263;52.260;10.548;2022-12-22T06:33:59;99221.81;;;8.50;100.00
7050;BME280;22263;52.260;10.548;2022-12-22T06:36:28;99229.28;;;8.53;100.00
7050;BME280;22263;52.260;10.548;2022-12-22T06:39:00;99198.63;;;8.44;100.00
7050;BME280;22263;52.260;10.548;2022-12-22T06:41:32;99215.91;;;8.51;100.00
7050;BME280;22263;52.260;10.548;2022-12-22T06:44:13;99214.75;;;8.42;100.00
7050;BME280;22263;52.260;10.548;2022-12-22T06:46:43;99210.41;;;8.41;100.00
7050;BME280;22263;52.260;10.548;2022-12-22T06:49:15;99213.56;;;8.43;100.00
7050;BME280;22263;52.260;10.548;2022-12-22T06:51:44;99215.13;;;8.44;100.00
7050;BME280;22263;52.260;10.548;2022-12-22T06:54:13;99211.19;;;8.41;100.00
7050;BME280;22263;52.260;10.548;2022-12-22T06:56:53;99207.66;;;8.34;100.00
7050;BME280;22263;52.260;10.548;2022-12-22T06:59:22;99208.47;;;8.34;100.00
7050;BME280;22263;52.260;10.548;2022-12-22T07:01:52;99205.28;;;8.36;100.00
7050;BME280;22263;52.260;10.548;2022-12-22T07:04:21;99208.03;;;8.28;100.00
7050;BME280;22263;52.260;10.548;2022-12-22T07:06:50;99208.81;;;8.25;100.00
7050;BME280;22263;52.260;10.548;2022-12-22T07:09:19;99203.69;;;8.20;100.00
7050;BME280;22263;52.260;10.548;2022-12-22T07:11:48;99199.78;;;8.32;100.00
7050;BME280;22263;52.260;10.548;2022-12-22T07:14:19;99202.94;;;8.34;100.00
7050;BME280;22263;52.260;10.548;2022-12-22T07:16:47;99194.66;;;8.27;100.00
7050;BME280;22263;52.260;10.548;2022-12-22T07:19:16;99199.78;;;8.36;100.00
7050;BME280;22263;52.260;10.548;2022-12-22T07:21:45;99207.25;;;8.28;100.00
7050;BME280;22263;52.260;10.548;2022-12-22T07:24:16;99199.38;;;8.23;100.00
7050;BME280;22263;52.260;10.548;2022-12-22T07:26:52;99194.66;;;8.16;100.00
7050;BME280;22263;52.260;10.548;2022-12-22T07:29:23;99195.84;;;8.19;100.00
7050;BME280;22263;52.260;10.548;2022-12-22T07:31:52;99197.81;;;8.18;100.00
7050;BME280;22263;52.260;10.548;2022-12-22T07:34:22;99197.00;;;8.21;100.00
7050;BME280;22263;52.260;10.548;2022-12-22T07:36:51;99200.94;;;8.20;100.00
7050;BME280;22263;52.260;10.548;2022-12-22T07:39:20;99189.94;;;8.24;100.00
7050;BME280;22263;52.260;10.548;2022-12-22T07:41:49;99189.16;;;8.23;100.00
7050;BME280;22263;52.260;10.548;2022-12-22T07:44:35;99189.94;;;8.27;100.00
7050;BME280;22263;52.260;10.548;2022-12-22T07:47:05;99188.75;;;8.21;100.00
7050;BME280;22263;52.260;10.548;2022-12-22T07:49:34;99181.66;;;8.20;100.00
7050;BME280;22263;52.260;10.548;2022-12-22T07:52:16;99180.91;;;8.23;100.00
7050;BME280;22263;52.260;10.548;2022-12-22T07:54:45;99174.59;;;8.16;100.00
7050;BME280;22263;52.260;10.548;2022-12-22T07:57:15;99171.44;;;8.17;100.00
7050;BME280;22263;52.260;10.548;2022-12-22T07:59:51;99170.66;;;8.17;100.00
7050;BME280;22263;52.260;10.548;2022-12-22T08:02:20;99168.69;;;8.17;100.00
7050;BME280;22263;52.260;10.548;2022-12-22T08:04:49;99157.69;;;8.14;100.00
7050;BME280;22263;52.260;10.548;2022-12-22T08:07:18;99163.97;;;8.21;100.00
7050;BME280;22263;52.260;10.548;2022-12-22T08:09:47;99162.78;;;8.15;100.00
7050;BME280;22263;52.260;10.548;2022-12-22T08:12:16;99167.91;;;8.17;100.00
7050;BME280;22263;52.260;10.548;2022-12-22T08:14:48;99163.19;;;8.14;100.00
7050;BME280;22263;52.260;10.548;2022-12-22T08:17:19;99162.03;;;8.15;100.00
7050;BME280;22263;52.260;10.548;2022-12-22T08:19:48;99163.59;;;8.12;100.00
7050;BME280;22263;52.260;10.548;2022-12-22T08:22:17;99169.47;;;8.21;100.00
7050;BME280;22263;52.260;10.548;2022-12-22T08:24:49;99174.22;;;8.24;100.00
7050;BME280;22263;52.260;10.548;2022-12-22T08:27:25;99167.91;;;8.31;100.00
7050;BME280;22263;52.260;10.548;2022-12-22T08:29:57;99163.19;;;8.24;100.00
7050;BME280;22263;52.260;10.548;2022-12-22T08:32:31;99170.28;;;8.29;100.00
7050;BME280;22263;52.260;10.548;2022-12-22T08:35:00;99162.41;;;8.35;100.00
7050;BME280;22263;52.260;10.548;2022-12-22T08:37:29;99167.91;;;8.42;100.00
7050;BME280;22263;52.260;10.548;2022-12-22T08:40:11;99156.09;;;8.45;100.00
7050;BME280;22263;52.260;10.548;2022-12-22T08:42:41;99162.81;;;8.44;100.00
7050;BME280;22263;52.260;10.548;2022-12-22T08:45:10;99163.97;;;8.43;100.00
7050;BME280;22263;52.260;10.548;2022-12-22T08:47:41;99158.47;;;8.43;100.00
7050;BME280;22263;52.260;10.548;2022-12-22T08:50:10;99156.91;;;8.31;100.00
7050;BME280;22263;52.260;10.548;2022-12-22T08:52:39;99162.03;;;8.32;100.00
7050;BME280;22263;52.260;10.548;2022-12-22T08:55:08;99160.44;;;8.35;100.00
7050;BME280;22263;52.260;10.548;2022-12-22T08:57:37;99161.59;;;8.41;100.00
7050;BME280;22263;52.260;10.548;2022-12-22T09:00:08;99158.47;;;8.36;100.00
7050;BME280;22263;52.260;10.548;2022-12-22T09:02:41;99154.53;;;8.40;100.00
7050;BME280;22263;52.260;10.548;2022-12-22T09:05:10;99160.44;;;8.31;100.00
7050;BME280;22263;52.260;10.548;2022-12-22T09:07:40;99158.47;;;8.32;100.00
7050;BME280;22263;52.260;10.548;2022-12-22T09:10:09;99163.19;;;8.31;100.00
7050;BME280;22263;52.260;10.548;2022-12-22T09:12:38;99167.13;;;8.30;100.00
7050;BME280;22263;52.260;10.548;2022-12-22T09:15:08;99161.63;;;8.30;100.00
7050;BME280;22263;52.260;10.548;2022-12-22T09:17:38;99159.25;;;8.29;100.00
7050;BME280;22263;52.260;10.548;2022-12-22T09:20:12;99169.47;;;8.25;100.00
7050;BME280;22263;52.260;10.548;2022-12-22T09:22:41;99165.56;;;8.33;100.00
7050;BME280;22263;52.260;10.548;2022-12-22T09:25:09;99165.16;;;8.27;100.00
7050;BME280;22263;52.260;10.548;2022-12-22T09:27:40;99169.50;;;8.32;100.00
7050;BME280;22263;52.260;10.548;2022-12-22T09:30:10;99161.63;;;8.20;100.00
7050;BME280;22263;52.260;10.548;2022-12-22T09:32:39;99161.63;;;8.30;100.00
7050;BME280;22263;52.260;10.548;2022-12-22T09:35:10;99167.09;;;8.27;100.00
7050;BME280;22263;52.260;10.548;2022-12-22T09:37:40;99163.97;;;8.28;100.00
7050;BME280;22263;52.260;10.548;2022-12-22T09:40:10;99155.31;;;8.37;100.00
7050;BME280;22263;52.260;10.548;2022-12-22T09:42:39;99163.56;;;8.41;100.00
7050;BME280;22263;52.260;10.548;2022-12-22T09:45:12;99161.22;;;8.36;100.00
7050;BME280;22263;52.260;10.548;2022-12-22T09:47:46;99168.69;;;8.28;100.00
7050;BME280;22263;52.260;10.548;2022-12-22T09:50:23;99165.94;;;8.31;100.00
7050;BME280;22263;52.260;10.548;2022-12-22T09:52:54;99158.06;;;8.30;100.00
7050;BME280;22263;52.260;10.548;2022-12-22T09:55:38;99162.41;;;8.42;100.00
7050;BME280;22263;52.260;10.548;2022-12-22T09:58:16;99162.41;;;8.35;100.00
7050;BME280;22263;52.260;10.548;2022-12-22T10:01:00;99152.19;;;8.24;100.00
7050;BME280;22263;52.260;10.548;2022-12-22T10:03:41;99163.97;;;8.36;100.00
7050;BME280;22263;52.260;10.548;2022-12-22T10:06:17;99158.84;;;8.41;100.00
7050;BME280;22263;52.260;10.548;2022-12-22T10:08:48;99167.13;;;8.41;100.00
7050;BME280;22263;52.260;10.548;2022-12-22T10:11:19;99175.38;;;8.41;100.00
7050;BME280;22263;52.260;10.548;2022-12-22T10:13:49;99179.69;;;8.46;100.00
7050;BME280;22263;52.260;10.548;2022-12-22T10:16:24;99173.41;;;8.42;100.00
7050;BME280;22263;52.260;10.548;2022-12-22T10:19:05;99177.75;;;8.46;100.00
7050;BME280;22263;52.260;10.548;2022-12-22T10:21:40;99172.63;;;8.45;100.00
7050;BME280;22263;52.260;10.548;2022-12-22T10:24:15;99174.19;;;8.53;100.00
7050;BME280;22263;52.260;10.548;2022-12-22T10:26:48;99170.63;;;8.63;100.00
7050;BME280;22263;52.260;10.548;2022-12-22T10:29:22;99174.94;;;8.71;100.00
7050;BME280;22263;52.260;10.548;2022-12-22T10:31:58;99176.09;;;8.70;100.00
7050;BME280;22263;52.260;10.548;2022-12-22T10:34:28;99185.53;;;8.76;100.00
7050;BME280;22263;52.260;10.548;2022-12-22T10:37:01;99179.66;;;8.67;100.00
7050;BME280;22263;52.260;10.548;2022-12-22T10:39:32;99183.22;;;8.67;100.00
7050;BME280;22263;52.260;10.548;2022-12-22T10:42:07;99179.66;;;8.60;100.00
7050;BME280;22263;52.260;10.548;2022-12-22T10:44:43;99185.97;;;8.57;100.00
7050;BME280;22263;52.260;10.548;2022-12-22T10:47:15;99184.41;;;8.56;100.00
7050;BME280;22263;52.260;10.548;2022-12-22T10:49:46;99189.50;;;8.64;100.00
7050;BME280;22263;52.260;10.548;2022-12-22T10:52:21;99196.59;;;8.72;100.00
7050;BME280;22263;52.260;10.548;2022-12-22T10:55:15;99197.75;;;8.82;100.00
7050;BME280;22263;52.260;10.548;2022-12-22T10:57:44;99207.56;;;8.83;100.00
7050;BME280;22263;52.260;10.548;2022-12-22T11:00:25;99202.06;;;8.87;100.00
7050;BME280;22263;52.260;10.548;2022-12-22T11:02:55;99198.09;;;8.88;100.00
7050;BME280;22263;52.260;10.548;2022-12-22T11:05:25;99200.44;;;8.93;100.00
7050;BME280;22263;52.260;10.548;2022-12-22T11:08:16;99198.47;;;8.97;100.00
7050;BME280;22263;52.260;10.548;2022-12-22T11:10:52;99201.59;;;9.02;100.00
7050;BME280;22263;52.260;10.548;2022-12-22T11:13:42;99201.19;;;9.07;100.00
7050;BME280;22263;52.260;10.548;2022-12-22T11:16:21;99205.13;;;9.10;100.00
7050;BME280;22263;52.260;10.548;2022-12-22T11:19:04;99201.94;;;9.11;100.00
7050;BME280;22263;52.260;10.548;2022-12-22T11:21:42;99203.94;;;9.11;100.00
7050;BME280;22263;52.260;10.548;2022-12-22T11:24:24;99194.06;;;9.21;100.00
7050;BME280;22263;52.260;10.548;2022-12-22T11:27:11;99212.16;;;9.18;100.00
7050;BME280;22263;52.260;10.548;2022-12-22T11:30:02;99203.88;;;9.22;100.00
7050;BME280;22263;52.260;10.548;2022-12-22T11:32:47;99205.47;;;9.19;100.00
7050;BME280;22263;52.260;10.548;2022-12-22T11:35:29;99217.28;;;9.16;100.00
7050;BME280;22263;52.260;10.548;2022-12-22T11:38:11;99216.94;;;9.10;100.00
7050;BME280;22263;52.260;10.548;2022-12-22T11:40:46;99218.09;;;9.20;100.00
7050;BME280;22263;52.260;10.548;2022-12-22T11:43:23;99219.25;;;9.19;100.00
7050;BME280;22263;52.260;10.548;2022-12-22T11:46:09;99217.31;;;9.12;100.00
7050;BME280;22263;52.260;10.548;2022-12-22T11:49:08;99221.19;;;9.26;100.00
7050;BME280;22263;52.260;10.548;2022-12-22T11:51:55;99229.47;;;9.26;100.00
7050;BME280;22263;52.260;10.548;2022-12-22T11:54:55;99230.25;;;9.30;100.00
7050;BME280;22263;52.260;10.548;2022-12-22T11:57:35;99237.75;;;9.26;100.00
7050;BME280;22263;52.260;10.548;2022-12-22T12:00:09;99248.78;;;9.26;100.00
7050;BME280;22263;52.260;10.548;2022-12-22T12:03:03;99253.47;;;9.36;100.00
7050;BME280;22263;52.260;10.548;2022-12-22T12:05:59;99260.19;;;9.35;100.00
7050;BME280;22263;52.260;10.548;2022-12-22T12:08:40;99257.44;;;9.28;100.00
7050;BME280;22263;52.260;10.548;2022-12-22T12:11:20;99261.81;;;9.25;100.00
7050;BME280;22263;52.260;10.548;2022-12-22T12:14:00;99264.16;;;9.23;100.00
7050;BME280;22263;52.260;10.548;2022-12-22T12:16:39;99270.47;;;9.24;100.00
7050;BME280;22263;52.260;10.548;2022-12-22T12:19:43;99279.13;;;9.26;100.00
7050;BME280;22263;52.260;10.548;2022-12-22T12:22:22;99281.09;;;9.29;100.00
7050;BME280;22263;52.260;10.548;2022-12-22T12:24:58;99276.78;;;9.17;100.00
7050;BME280;22263;52.260;10.548;2022-12-22T12:27:40;99279.19;;;9.15;100.00
7050;BME280;22263;52.260;10.548;2022-12-22T12:30:16;99297.66;;;9.18;100.00
7050;BME280;22263;52.260;10.548;2022-12-22T12:33:10;99304.75;;;9.23;100.00
7050;BME280;22263;52.260;10.548;2022-12-22T12:35:52;99307.13;;;9.21;100.00
7050;BME280;22263;52.260;10.548;2022-12-22T12:38:27;99303.53;;;9.38;100.00
7050;BME280;22263;52.260;10.548;2022-12-22T12:41:23;99314.59;;;9.34;100.00
7050;BME280;22263;52.260;10.548;2022-12-22T12:43:57;99307.09;;;9.35;100.00
7050;BME280;22263;52.260;10.548;2022-12-22T12:47:03;99300.75;;;9.48;100.00
7050;BME280;22263;52.260;10.548;2022-12-22T12:49:55;99315.75;;;9.37;100.00
7050;BME280;22263;52.260;10.548;2022-12-22T12:55:28;99326.75;;;9.40;100.00
7050;BME280;22263;52.260;10.548;2022-12-22T12:58:00;99322.06;;;9.37;100.00
7050;BME280;22263;52.260;10.548;2022-12-22T13:00:41;99328.38;;;9.27;100.00
7050;BME280;22263;52.260;10.548;2022-12-22T13:03:38;99324.84;;;9.27;100.00
7050;BME280;22263;52.260;10.548;2022-12-22T13:06:48;99327.59;;;9.27;100.00
7050;BME280;22263;52.260;10.548;2022-12-22T13:09:20;99329.22;;;9.21;100.00
7050;BME280;22263;52.260;10.548;2022-12-22T13:12:36;99328.41;;;9.13;100.00
7050;BME280;22263;52.260;10.548;2022-12-22T13:15:28;99331.56;;;9.18;100.00
7050;BME280;22263;52.260;10.548;2022-12-22T13:17:58;99341.41;;;9.16;100.00
7050;BME280;22263;52.260;10.548;2022-12-22T13:20:31;99342.59;;;9.22;100.00
7050;BME280;22263;52.260;10.548;2022-12-22T13:23:03;99356.78;;;9.21;100.00
7050;BME280;22263;52.260;10.548;2022-12-22T13:25:44;99369.78;;;9.24;100.00
7050;BME280;22263;52.260;10.548;2022-12-22T13:28:17;99368.56;;;9.32;100.00
7050;BME280;22263;52.260;10.548;2022-12-22T13:30:49;99374.09;;;9.21;100.00
7050;BME280;22263;52.260;10.548;2022-12-22T13:33:23;99374.91;;;9.25;100.00
7050;BME280;22263;52.260;10.548;2022-12-22T13:35:55;99366.63;;;9.07;100.00
7050;BME280;22263;52.260;10.548;2022-12-22T13:38:27;99383.56;;;9.16;100.00
7050;BME280;22263;52.260;10.548;2022-12-22T13:40:57;99382.41;;;9.10;100.00
7050;BME280;22263;52.260;10.548;2022-12-22T13:43:29;99394.59;;;9.13;100.00
7050;BME280;22263;52.260;10.548;2022-12-22T13:46:01;99402.91;;;9.06;100.00
7050;BME280;22263;52.260;10.548;2022-12-22T13:48:36;99411.16;;;9.09;100.00
7050;BME280;22263;52.260;10.548;2022-12-22T13:51:21;99407.22;;;9.07;100.00
7050;BME280;22263;52.260;10.548;2022-12-22T13:53:53;99421.00;;;9.07;100.00